Time;durP1;ratioP1;P1;durP2;ratioP2;P2;SDS_P1;SDS_P2;PMS_P1;PMS_P2;Temp;Humidity;BMP_temperature;BMP_pressure;BME280_temperature;BME280_humidity;BME280_pressure;Samples;Min_cycle;Max_cycle;Signal;HPM_P1;HPM_P2
2021/11/03 00:01:37;;;;;;;4.37;3.83;;;9.90;99.90;;;;;;5019306;28;20206;-83
2021/11/03 00:04:09;;;;;;;4.57;3.10;;;9.90;99.90;;;;;;5018210;28;20258;-84
2021/11/03 00:06:42;;;;;;;6.90;3.80;;;9.90;99.90;;;;;;4994810;28;20262;-82
2021/11/03 00:09:14;;;;;;;5.83;3.50;;;9.90;99.90;;;;;;5018531;28;20206;-84
2021/11/03 00:11:47;;;;;;;5.77;3.23;;;9.90;99.90;;;;;;5016029;28;20674;-84
2021/11/03 00:14:18;;;;;;;7.07;3.43;;;9.80;99.90;;;;;;4995775;28;20213;-84
2021/11/03 00:16:50;;;;;;;4.47;3.40;;;9.90;99.90;;;;;;5006479;28;20237;-82
2021/11/03 00:19:21;;;;;;;3.00;2.70;;;9.90;99.90;;;;;;5008107;28;20237;-83
2021/11/03 00:21:52;;;;;;;4.10;3.20;;;9.90;99.90;;;;;;4991909;28;20230;-84
2021/11/03 00:24:25;;;;;;;2.90;2.60;;;9.90;99.90;;;;;;4980836;28;20242;-83
2021/11/03 00:26:59;;;;;;;8.60;3.30;;;9.80;99.90;;;;;;4968881;28;20210;-83
2021/11/03 00:29:30;;;;;;;2.80;2.50;;;9.80;99.90;;;;;;5020518;28;20219;-83
2021/11/03 00:32:01;;;;;;;3.17;2.37;;;9.70;99.90;;;;;;5017856;28;20205;-83
2021/11/03 00:34:32;;;;;;;2.67;2.30;;;9.70;99.90;;;;;;5018058;28;20217;-82
2021/11/03 00:37:03;;;;;;;2.90;2.47;;;9.70;99.90;;;;;;5016662;28;20205;-84
2021/11/03 00:39:34;;;;;;;4.57;2.30;;;9.70;99.90;;;;;;5008637;28;20215;-83
2021/11/03 00:42:07;;;;;;;2.70;2.43;;;9.70;99.90;;;;;;5004897;28;20206;-81
2021/11/03 00:44:38;;;;;;;2.50;2.20;;;9.70;99.90;;;;;;4997409;28;20682;-82
2021/11/03 00:47:10;;;;;;;2.90;2.40;;;9.70;99.90;;;;;;5010352;28;20229;-83
2021/11/03 00:49:42;;;;;;;2.47;2.10;;;9.70;99.90;;;;;;5003494;28;20705;-84
2021/11/03 00:52:12;;;;;;;2.57;2.37;;;9.70;99.90;;;;;;4997593;28;20264;-84
2021/11/03 00:54:44;;;;;;;2.47;2.20;;;9.70;99.90;;;;;;4997617;28;20245;-83
2021/11/03 00:57:17;;;;;;;2.20;2.00;;;9.70;99.90;;;;;;4995931;28;20279;-85
2021/11/03 00:59:52;;;;;;;3.33;1.80;;;9.70;99.90;;;;;;4996731;28;20292;-84
2021/11/03 01:02:23;;;;;;;2.20;1.80;;;9.70;99.90;;;;;;4998566;28;20210;-84
2021/11/03 01:04:55;;;;;;;2.40;1.90;;;9.70;99.90;;;;;;4997338;28;20257;-85
2021/11/03 01:07:27;;;;;;;2.93;1.70;;;9.70;99.90;;;;;;4999251;28;20203;-84
2021/11/03 01:10:37;;;;;;;2.53;1.60;;;9.60;99.90;;;;;;5311380;23;20245;-87
2021/11/03 01:13:11;;;;;;;1.60;1.50;;;9.60;99.90;;;;;;5031683;28;20202;-85
2021/11/03 01:15:42;;;;;;;2.37;1.70;;;9.60;99.90;;;;;;5030951;28;20237;-84
2021/11/03 01:18:14;;;;;;;2.00;1.80;;;9.60;99.90;;;;;;5024527;28;20337;-83
2021/11/03 01:20:45;;;;;;;3.23;1.70;;;9.60;99.90;;;;;;5030178;28;20210;-84
2021/11/03 01:23:17;;;;;;;2.63;1.70;;;9.60;99.90;;;;;;5019647;28;20260;-85
2021/11/03 01:25:48;;;;;;;2.10;1.70;;;9.50;99.90;;;;;;5016813;28;20234;-84
2021/11/03 01:28:21;;;;;;;2.50;2.20;;;9.50;99.90;;;;;;5019026;28;20240;-84
2021/11/03 01:30:53;;;;;;;3.77;2.20;;;9.50;99.90;;;;;;5005868;28;20202;-83
2021/11/03 01:33:25;;;;;;;2.10;1.93;;;9.50;99.90;;;;;;5010762;28;20225;-85
2021/11/03 01:35:55;;;;;;;2.30;2.00;;;9.50;99.90;;;;;;5017774;28;20217;-85
2021/11/03 01:38:26;;;;;;;2.30;1.70;;;9.50;99.90;;;;;;5032977;28;20244;-84
2021/11/03 01:40:58;;;;;;;1.87;1.53;;;9.50;99.90;;;;;;5019708;28;20241;-84
2021/11/03 01:43:40;;;;;;;1.90;1.63;;;9.50;99.90;;;;;;5017544;28;20216;-83
2021/11/03 01:46:19;;;;;;;1.73;1.37;;;9.50;99.90;;;;;;5016306;28;20670;-84
2021/11/03 01:48:55;;;;;;;2.10;1.50;;;9.50;99.90;;;;;;5030573;28;20516;-84
2021/11/03 01:51:36;;;;;;;3.07;1.77;;;9.50;99.90;;;;;;5034975;28;20205;-84
2021/11/03 01:54:13;;;;;;;3.27;1.77;;;9.60;99.90;;;;;;5040918;28;20202;-85
2021/11/03 01:56:46;;;;;;;1.70;1.57;;;9.50;99.90;;;;;;5031284;28;20239;-85
2021/11/03 01:59:25;;;;;;;2.10;1.90;;;9.60;99.90;;;;;;5029176;28;20202;-84
2021/11/03 02:01:56;;;;;;;2.50;1.93;;;9.60;99.90;;;;;;5028167;28;20202;-84
2021/11/03 02:04:28;;;;;;;2.60;1.70;;;9.60;99.90;;;;;;5028929;28;20522;-84
2021/11/03 02:07:01;;;;;;;3.27;1.80;;;9.60;99.90;;;;;;5027890;28;20229;-84
2021/11/03 02:09:32;;;;;;;2.67;1.80;;;9.60;99.90;;;;;;5028908;28;20216;-83
2021/11/03 02:12:04;;;;;;;4.43;1.90;;;9.60;99.90;;;;;;5031600;28;20206;-84
2021/11/03 02:14:47;;;;;;;2.40;1.83;;;9.70;99.90;;;;;;5032959;28;20205;-84
2021/11/03 02:17:23;;;;;;;2.60;1.90;;;9.70;99.90;;;;;;5031615;28;20201;-84
2021/11/03 02:20:01;;;;;;;2.27;1.80;;;9.60;99.90;;;;;;5036590;28;20228;-84
2021/11/03 02:22:40;;;;;;;2.23;1.70;;;9.70;99.90;;;;;;5037605;28;20224;-82
2021/11/03 02:25:14;;;;;;;2.20;1.77;;;9.70;99.90;;;;;;5036745;28;20205;-85
2021/11/03 02:27:49;;;;;;;2.43;2.00;;;9.70;99.90;;;;;;5037558;28;20200;-84
2021/11/03 02:30:28;;;;;;;2.47;1.67;;;9.70;99.90;;;;;;5040300;28;20236;-84
2021/11/03 02:33:13;;;;;;;1.67;1.57;;;9.70;99.90;;;;;;5029228;28;20228;-83
2021/11/03 02:35:52;;;;;;;2.03;1.83;;;9.70;99.90;;;;;;5041502;28;20189;-84
2021/11/03 02:38:33;;;;;;;2.33;1.80;;;9.70;99.90;;;;;;5044784;28;20209;-84
2021/11/03 02:41:11;;;;;;;2.53;2.33;;;9.70;99.90;;;;;;5028922;28;20208;-83
2021/11/03 02:43:47;;;;;;;2.40;2.20;;;9.70;99.90;;;;;;5032787;28;20198;-84
2021/11/03 02:46:19;;;;;;;2.27;2.07;;;9.70;99.90;;;;;;5034853;28;20267;-89
2021/11/03 02:48:48;;;;;;;4.37;2.00;;;9.70;99.90;;;;;;5047762;28;20197;-88
2021/11/03 02:51:24;;;;;;;2.03;1.77;;;9.70;99.90;;;;;;5038616;28;20198;-88
2021/11/03 02:53:57;;;;;;;1.57;1.40;;;9.70;99.90;;;;;;5030335;28;20205;-87
2021/11/03 02:56:35;;;;;;;1.70;1.50;;;9.70;99.90;;;;;;5030680;28;20229;-87
2021/11/03 02:59:08;;;;;;;3.30;1.80;;;9.70;99.90;;;;;;5043886;28;20188;-87
2021/11/03 03:04:13;;;;;;;1.80;1.70;;;9.70;99.90;;;;;;5007547;28;20216;-88
2021/11/03 03:06:45;;;;;;;2.67;2.07;;;9.70;99.90;;;;;;4991085;28;20243;-89
2021/11/03 03:09:18;;;;;;;2.10;1.90;;;9.70;99.90;;;;;;5460983;23;20281;-87
2021/11/03 03:12:02;;;;;;;3.17;2.23;;;9.70;99.90;;;;;;5031157;28;20253;-90
2021/11/03 03:14:37;;;;;;;2.40;2.07;;;9.70;99.90;;;;;;5031866;28;20256;-90
2021/11/03 03:17:13;;;;;;;3.40;2.00;;;9.70;99.90;;;;;;5028697;28;20212;-88
2021/11/03 03:19:46;;;;;;;2.03;1.83;;;9.70;99.90;;;;;;5012815;28;20209;-89
2021/11/03 03:22:21;;;;;;;1.57;1.27;;;9.70;99.90;;;;;;5030402;28;20201;-89
2021/11/03 03:24:53;;;;;;;3.20;1.70;;;9.60;99.90;;;;;;5029272;28;20661;-90
2021/11/03 03:27:35;;;;;;;2.63;1.50;;;9.60;99.90;;;;;;5029598;28;20240;-89
2021/11/03 03:30:10;;;;;;;2.33;1.57;;;9.60;99.90;;;;;;5604421;23;20218;-88
2021/11/03 03:32:49;;;;;;;2.07;1.67;;;9.60;99.90;;;;;;4991579;28;20226;-89
2021/11/03 03:35:21;;;;;;;2.33;1.30;;;9.60;99.90;;;;;;4989036;28;20441;-87
2021/11/03 03:37:53;;;;;;;2.37;1.37;;;9.60;99.90;;;;;;4989859;28;20239;-88
2021/11/03 03:40:24;;;;;;;2.17;1.40;;;9.60;99.90;;;;;;4991005;28;20221;-88
2021/11/03 03:43:01;;;;;;;2.17;1.50;;;9.50;99.90;;;;;;5008872;28;20299;-90
2021/11/03 03:45:36;;;;;;;1.73;1.40;;;9.60;99.90;;;;;;4976226;28;20335;-88
2021/11/03 03:48:08;;;;;;;1.87;1.30;;;9.60;99.90;;;;;;4995500;28;20211;-88
2021/11/03 03:50:44;;;;;;;1.93;1.53;;;9.60;99.90;;;;;;4996400;28;20210;-88
2021/11/03 03:53:18;;;;;;;2.00;1.50;;;9.50;99.90;;;;;;4994862;28;20211;-87
2021/11/03 03:56:11;;;;;;;1.60;1.30;;;9.50;99.90;;;;;;4994643;28;20252;-88
2021/11/03 03:58:50;;;;;;;1.70;1.33;;;9.50;99.90;;;;;;4994284;28;20211;-86
2021/11/03 04:01:25;;;;;;;1.60;1.30;;;9.50;99.90;;;;;;4982240;28;20199;-88
2021/11/03 04:04:18;;;;;;;1.47;1.30;;;9.60;99.90;;;;;;4997531;28;20218;-87
2021/11/03 04:06:51;;;;;;;2.20;1.57;;;9.60;99.90;;;;;;4998529;28;20223;-88
2021/11/03 04:09:23;;;;;;;1.93;1.27;;;9.60;99.90;;;;;;4997054;28;20240;-89
2021/11/03 04:11:54;;;;;;;1.40;1.13;;;9.60;99.90;;;;;;4996213;28;20207;-88
2021/11/03 04:14:28;;;;;;;1.73;1.40;;;9.50;99.90;;;;;;4980933;28;20202;-87
2021/11/03 04:17:00;;;;;;;4.80;1.30;;;9.60;99.90;;;;;;4994413;28;20784;-88
2021/11/03 04:19:32;;;;;;;2.37;1.70;;;9.50;99.90;;;;;;4992202;28;20222;-88
2021/11/03 04:22:07;;;;;;;2.47;1.50;;;9.50;99.90;;;;;;4991402;28;20219;-88
2021/11/03 04:24:39;;;;;;;3.23;1.50;;;9.50;99.90;;;;;;4987497;28;20207;-88
2021/11/03 04:29:48;;;;;;;3.63;1.27;;;9.50;99.90;;;;;;5223410;23;20252;-87
2021/11/03 04:32:18;;;;;;;2.00;1.60;;;9.50;99.90;;;;;;4992893;28;20207;-87
2021/11/03 04:34:50;;;;;;;2.20;1.50;;;9.50;99.90;;;;;;4992482;28;20207;-88
2021/11/03 04:37:22;;;;;;;1.87;1.20;;;9.50;99.90;;;;;;4989156;28;20262;-88
2021/11/03 04:39:53;;;;;;;2.03;1.40;;;9.50;99.90;;;;;;4982012;28;20211;-89
2021/11/03 04:42:25;;;;;;;2.53;1.20;;;9.50;99.90;;;;;;4982339;28;20207;-87
2021/11/03 04:44:58;;;;;;;1.70;1.30;;;9.50;99.90;;;;;;4998279;28;20238;-89
2021/11/03 04:47:29;;;;;;;1.40;1.17;;;9.60;99.90;;;;;;4997734;28;20266;-88
2021/11/03 04:50:01;;;;;;;1.27;1.00;;;9.60;99.90;;;;;;4989784;28;20200;-88
2021/11/03 04:52:32;;;;;;;1.97;1.20;;;9.60;99.90;;;;;;5006316;28;20191;-88
2021/11/03 04:55:04;;;;;;;1.17;0.80;;;9.70;99.90;;;;;;4988480;28;20278;-88
2021/11/03 04:57:35;;;;;;;1.30;1.00;;;9.70;99.90;;;;;;4990503;28;20246;-88
2021/11/03 05:00:19;;;;;;;1.10;0.90;;;9.70;99.90;;;;;;4979883;28;20225;-88
2021/11/03 05:02:50;;;;;;;1.73;1.00;;;9.80;99.90;;;;;;5003746;28;20211;-88
2021/11/03 05:05:22;;;;;;;1.87;0.90;;;9.70;99.90;;;;;;4982234;28;20269;-89
2021/11/03 05:07:54;;;;;;;1.20;0.80;;;9.80;99.90;;;;;;4994799;28;20239;-88
2021/11/03 05:10:26;;;;;;;1.60;0.80;;;9.80;99.90;;;;;;4988415;28;20215;-87
2021/11/03 05:12:57;;;;;;;1.33;0.87;;;9.80;99.90;;;;;;4985730;28;20207;-88
2021/11/03 05:15:32;;;;;;;1.40;0.80;;;9.80;99.90;;;;;;4990521;28;20206;-88
2021/11/03 05:18:04;;;;;;;0.97;0.87;;;9.80;99.90;;;;;;4980959;28;20211;-87
2021/11/03 05:20:35;;;;;;;2.27;0.80;;;9.80;99.90;;;;;;4980724;28;20211;-87
2021/11/03 05:23:06;;;;;;;1.60;0.83;;;9.80;99.90;;;;;;4979753;28;20671;-90
2021/11/03 05:25:38;;;;;;;1.63;0.80;;;9.70;99.90;;;;;;4979365;28;20253;-88
2021/11/03 05:28:11;;;;;;;1.43;0.80;;;9.70;99.90;;;;;;4980385;28;20238;-88
2021/11/03 05:30:44;;;;;;;2.10;0.77;;;9.70;99.90;;;;;;4979614;28;20601;-88
2021/11/03 05:33:16;;;;;;;1.07;0.87;;;9.70;99.90;;;;;;4979668;28;20286;-89
2021/11/03 05:35:47;;;;;;;1.87;0.80;;;9.70;99.90;;;;;;4978305;28;20656;-88
2021/11/03 05:38:19;;;;;;;0.93;0.83;;;9.70;99.90;;;;;;4971214;28;20539;-86
2021/11/03 05:40:50;;;;;;;1.53;0.70;;;9.60;99.90;;;;;;4982549;28;20293;-88
2021/11/03 05:43:22;;;;;;;1.43;0.90;;;9.60;99.90;;;;;;4970078;28;20241;-89
2021/11/03 05:45:57;;;;;;;1.00;0.90;;;9.60;99.90;;;;;;4983365;28;20521;-88
2021/11/03 05:48:36;;;;;;;1.10;0.70;;;9.60;99.90;;;;;;4979301;28;20261;-89
2021/11/03 05:51:09;;;;;;;1.57;0.50;;;9.50;99.90;;;;;;4979222;28;20233;-89
2021/11/03 05:53:40;;;;;;;0.60;0.60;;;9.50;99.90;;;;;;4977193;28;20222;-88
2021/11/03 05:56:13;;;;;;;0.80;0.63;;;9.60;99.90;;;;;;4985428;28;20207;-87
2021/11/03 05:58:45;;;;;;;0.77;0.63;;;9.60;99.90;;;;;;4989348;28;20206;-87
2021/11/03 06:01:19;;;;;;;0.70;0.70;;;9.50;99.90;;;;;;4982358;28;20207;-88
2021/11/03 06:03:54;;;;;;;0.90;0.63;;;9.50;99.90;;;;;;4992091;28;20567;-87
2021/11/03 06:06:25;;;;;;;0.73;0.73;;;9.60;99.90;;;;;;4987737;28;20203;-89
2021/11/03 06:08:57;;;;;;;1.53;0.90;;;9.60;99.90;;;;;;4979143;28;20325;-87
2021/11/03 06:11:31;;;;;;;1.77;0.90;;;9.60;99.90;;;;;;4979366;28;20253;-89
2021/11/03 06:14:02;;;;;;;2.23;1.00;;;9.60;99.90;;;;;;4981120;28;20218;-88
2021/11/03 06:16:37;;;;;;;1.47;0.90;;;9.60;99.90;;;;;;4979189;28;20210;-88
2021/11/03 06:19:08;;;;;;;1.27;0.70;;;9.70;99.90;;;;;;4979755;28;20311;-88
2021/11/03 06:21:40;;;;;;;0.80;0.80;;;9.60;99.90;;;;;;4987407;28;20222;-88
2021/11/03 06:24:13;;;;;;;1.00;0.90;;;9.70;99.90;;;;;;4978266;28;20664;-88
2021/11/03 06:26:44;;;;;;;1.00;0.90;;;9.70;99.90;;;;;;4978424;28;20242;-88
2021/11/03 06:29:17;;;;;;;1.00;0.87;;;9.80;99.90;;;;;;4978736;28;20234;-89
2021/11/03 06:31:52;;;;;;;0.83;0.80;;;9.80;99.90;;;;;;4978452;28;20245;-89
2021/11/03 06:34:23;;;;;;;1.70;1.30;;;9.80;99.90;;;;;;4994160;28;20709;-88
2021/11/03 06:36:55;;;;;;;1.83;1.17;;;9.90;99.90;;;;;;4995128;28;20235;-87
2021/11/03 06:39:26;;;;;;;1.47;1.00;;;9.90;99.90;;;;;;4978810;28;20656;-89
2021/11/03 06:41:57;;;;;;;2.17;1.00;;;9.90;99.90;;;;;;4967637;28;20254;-88
2021/11/03 06:44:29;;;;;;;1.03;0.90;;;10.00;99.90;;;;;;4960595;28;20665;-89
2021/11/03 06:47:02;;;;;;;0.90;0.90;;;10.00;99.90;;;;;;4979554;28;20265;-88
2021/11/03 06:49:35;;;;;;;1.63;1.10;;;10.00;99.90;;;;;;4979062;28;20770;-88
2021/11/03 06:52:08;;;;;;;1.17;1.00;;;10.00;99.90;;;;;;4979157;28;20215;-87
2021/11/03 06:54:39;;;;;;;2.03;1.10;;;10.00;99.90;;;;;;4979070;28;20278;-87
2021/11/03 06:57:13;;;;;;;1.17;0.80;;;10.00;99.90;;;;;;4979363;28;20211;-87
2021/11/03 06:59:50;;;;;;;5.20;1.00;;;9.90;99.90;;;;;;4993766;28;20217;-87
2021/11/03 07:02:23;;;;;;;1.27;0.80;;;10.00;99.90;;;;;;5003471;28;20195;-90
2021/11/03 07:04:56;;;;;;;0.83;0.80;;;10.00;99.90;;;;;;4998105;28;20301;-87
2021/11/03 07:07:28;;;;;;;1.67;0.90;;;10.00;99.90;;;;;;4979896;28;20298;-86
2021/11/03 07:09:59;;;;;;;2.33;0.90;;;10.00;99.90;;;;;;4978624;28;20218;-88
2021/11/03 07:12:30;;;;;;;1.60;1.00;;;9.90;99.90;;;;;;4978330;28;20211;-86
2021/11/03 07:15:01;;;;;;;1.27;0.90;;;9.90;99.90;;;;;;4961402;28;20246;-88
2021/11/03 07:17:34;;;;;;;0.83;0.83;;;9.90;99.90;;;;;;4978117;28;20238;-88
2021/11/03 07:20:06;;;;;;;1.40;1.00;;;9.90;99.90;;;;;;4978450;28;20563;-88
2021/11/03 07:22:38;;;;;;;1.67;1.07;;;9.90;99.90;;;;;;4978295;28;20306;-87
2021/11/03 07:25:12;;;;;;;1.20;1.10;;;9.90;99.90;;;;;;4977645;28;20229;-90
2021/11/03 07:27:43;;;;;;;1.10;1.00;;;10.00;99.90;;;;;;4977675;28;20206;-88
2021/11/03 07:30:15;;;;;;;1.80;1.00;;;10.00;99.90;;;;;;4978109;28;20285;-87
2021/11/03 07:32:49;;;;;;;2.37;1.00;;;10.00;99.90;;;;;;4978319;28;20273;-88
2021/11/03 07:35:20;;;;;;;1.17;0.97;;;9.90;99.90;;;;;;4981387;28;20203;-88
2021/11/03 07:37:57;;;;;;;1.03;0.93;;;9.90;99.90;;;;;;4992713;28;20548;-88
2021/11/03 07:40:31;;;;;;;2.30;1.27;;;9.90;99.90;;;;;;4996679;28;20202;-87
2021/11/03 07:43:03;;;;;;;1.87;1.27;;;9.90;99.90;;;;;;4971217;28;20218;-89
2021/11/03 07:45:37;;;;;;;1.40;1.20;;;9.90;99.90;;;;;;4981409;28;20632;-88
2021/11/03 07:48:11;;;;;;;4.73;1.40;;;9.90;99.90;;;;;;4964984;28;20616;-88
2021/11/03 07:50:46;;;;;;;1.40;1.30;;;9.80;99.90;;;;;;4981250;28;20250;-87
2021/11/03 07:53:19;;;;;;;3.27;1.63;;;9.80;99.90;;;;;;4981684;28;20664;-88
2021/11/03 07:55:54;;;;;;;3.27;1.40;;;9.90;99.90;;;;;;4983494;28;20202;-87
2021/11/03 07:58:27;;;;;;;3.37;1.30;;;9.80;99.90;;;;;;4998225;28;20210;-87
2021/11/03 08:00:59;;;;;;;2.10;1.33;;;9.80;99.90;;;;;;5003885;28;20213;-87
2021/11/03 08:03:32;;;;;;;3.07;1.57;;;9.80;99.90;;;;;;5001749;28;20223;-88
2021/11/03 08:06:04;;;;;;;1.80;1.50;;;9.70;99.90;;;;;;4993005;28;20274;-88
2021/11/03 08:08:43;;;;;;;1.57;1.30;;;9.70;99.90;;;;;;5013252;28;20258;-88
2021/11/03 08:11:16;;;;;;;1.40;1.20;;;9.70;99.90;;;;;;4998592;28;20186;-88
2021/11/03 08:13:47;;;;;;;2.37;1.40;;;9.70;99.90;;;;;;5000855;28;20191;-88
2021/11/03 08:16:19;;;;;;;1.50;1.30;;;9.60;99.90;;;;;;4999177;28;20199;-87
2021/11/03 08:18:53;;;;;;;3.47;1.47;;;9.70;99.90;;;;;;4983696;28;20221;-87
2021/11/03 08:21:26;;;;;;;2.90;1.50;;;9.70;99.90;;;;;;4999529;28;20209;-88
2021/11/03 08:23:57;;;;;;;3.20;1.13;;;9.70;99.90;;;;;;4973142;28;20208;-85
2021/11/03 08:26:28;;;;;;;2.47;1.20;;;9.70;99.90;;;;;;4964358;29;20208;-87
2021/11/03 08:28:59;;;;;;;2.40;1.20;;;9.70;99.90;;;;;;4969822;29;20243;-87
2021/11/03 08:31:31;;;;;;;3.53;1.73;;;9.70;99.90;;;;;;4974380;28;20214;-86
2021/11/03 08:34:04;;;;;;;3.27;1.63;;;9.70;99.90;;;;;;4969711;28;20208;-87
2021/11/03 08:36:36;;;;;;;1.60;1.47;;;9.70;99.90;;;;;;4968642;28;20235;-87
2021/11/03 08:39:09;;;;;;;2.77;1.70;;;9.70;99.90;;;;;;4947939;28;20859;-88
2021/11/03 08:41:41;;;;;;;2.93;1.63;;;9.70;99.90;;;;;;4973401;28;20218;-88
2021/11/03 08:44:12;;;;;;;1.87;1.47;;;9.70;99.90;;;;;;4982985;28;20281;-88
2021/11/03 08:46:43;;;;;;;2.43;1.70;;;9.80;99.90;;;;;;4980508;28;20215;-88
2021/11/03 08:49:17;;;;;;;2.07;1.50;;;9.80;99.90;;;;;;4982890;28;20266;-88
2021/11/03 08:51:49;;;;;;;2.97;1.63;;;9.80;99.90;;;;;;4966878;28;20251;-88
2021/11/03 08:54:20;;;;;;;2.33;1.50;;;9.80;99.90;;;;;;4981164;28;20262;-88
2021/11/03 08:56:51;;;;;;;4.00;2.00;;;9.80;99.90;;;;;;4979118;28;20661;-87
2021/11/03 08:59:22;;;;;;;3.40;1.70;;;9.90;99.90;;;;;;4980077;28;20676;-87
2021/11/03 09:01:53;;;;;;;2.90;2.10;;;9.90;99.90;;;;;;4981428;28;20653;-87
2021/11/03 09:04:26;;;;;;;3.37;1.73;;;9.90;99.90;;;;;;4980423;28;20215;-87
2021/11/03 09:06:57;;;;;;;4.07;1.60;;;9.90;99.90;;;;;;4980585;28;20238;-87
2021/11/03 09:09:30;;;;;;;1.90;1.50;;;9.90;99.90;;;;;;4981197;28;20239;-86
2021/11/03 09:12:03;;;;;;;2.00;1.57;;;9.90;99.90;;;;;;4983146;28;20207;-87
2021/11/03 09:14:33;;;;;;;2.33;1.47;;;9.90;99.90;;;;;;4982550;28;20242;-87
2021/11/03 09:17:06;;;;;;;3.37;1.20;;;9.80;99.90;;;;;;4978999;28;20727;-87
2021/11/03 09:19:39;;;;;;;4.87;1.50;;;9.80;99.90;;;;;;4980973;28;20218;-88
2021/11/03 09:22:10;;;;;;;3.20;1.70;;;9.80;99.90;;;;;;4981199;28;20210;-87
2021/11/03 09:24:42;;;;;;;1.37;1.10;;;9.80;99.90;;;;;;4980734;28;20203;-88
2021/11/03 09:27:14;;;;;;;2.13;1.20;;;9.80;99.90;;;;;;4980138;28;20203;-88
2021/11/03 09:29:49;;;;;;;2.30;1.50;;;9.80;99.90;;;;;;4960597;29;20239;-87
2021/11/03 09:32:27;;;;;;;2.03;1.50;;;9.80;99.90;;;;;;4945298;28;20301;-87
2021/11/03 09:35:02;;;;;;;3.23;1.57;;;9.80;99.90;;;;;;4960432;28;20219;-88
2021/11/03 09:37:37;;;;;;;1.80;1.30;;;9.80;99.90;;;;;;4975219;28;20323;-88
2021/11/03 09:40:11;;;;;;;1.43;1.20;;;9.80;99.90;;;;;;4991880;28;20211;-88
2021/11/03 09:42:42;;;;;;;2.27;1.13;;;9.90;99.90;;;;;;4993793;28;20226;-88
2021/11/03 09:45:21;;;;;;;2.27;1.20;;;9.90;99.90;;;;;;4994138;28;20210;-86
2021/11/03 09:48:03;;;;;;;1.97;1.20;;;9.90;99.90;;;;;;4991230;28;20207;-88
2021/11/03 09:50:40;;;;;;;2.80;1.47;;;9.90;99.90;;;;;;4975943;28;20250;-88
2021/11/03 09:53:29;;;;;;;1.10;1.00;;;9.90;99.90;;;;;;4980220;28;20267;-88
2021/11/03 09:56:01;;;;;;;1.00;0.80;;;10.00;99.90;;;;;;4979591;28;20211;-87
2021/11/03 09:58:45;;;;;;;1.70;0.87;;;9.90;99.90;;;;;;4984967;28;20254;-87
2021/11/03 10:01:31;;;;;;;1.00;0.90;;;9.90;99.90;;;;;;4980439;28;20203;-87
2021/11/03 10:04:15;;;;;;;0.80;0.80;;;10.00;99.90;;;;;;4979789;28;20203;-88
2021/11/03 10:06:56;;;;;;;1.30;1.00;;;10.00;99.90;;;;;;4978618;28;20218;-87
2021/11/03 10:09:27;;;;;;;0.80;0.80;;;10.00;99.90;;;;;;4974100;28;20551;-87
2021/11/03 10:11:58;;;;;;;0.90;0.40;;;9.90;99.90;;;;;;4979374;28;20269;-89
2021/11/03 10:14:30;;;;;;;3.63;0.57;;;9.90;99.90;;;;;;4978830;28;20249;-87
2021/11/03 10:17:23;;;;;;;1.83;0.50;;;10.00;99.90;;;;;;4977955;28;20218;-88
2021/11/03 10:19:57;;;;;;;0.70;0.70;;;10.10;99.90;;;;;;4979112;28;20458;-88
2021/11/03 10:22:37;;;;;;;0.60;0.50;;;10.00;99.90;;;;;;4978575;28;20238;-88
2021/11/03 10:25:24;;;;;;;0.70;0.50;;;9.90;99.90;;;;;;4977628;28;20282;-89
2021/11/03 10:27:59;;;;;;;1.40;0.70;;;9.90;99.90;;;;;;4976557;28;20238;-88
2021/11/03 10:30:34;;;;;;;2.53;0.70;;;9.90;99.90;;;;;;4997617;28;20288;-89
2021/11/03 10:33:23;;;;;;;2.20;0.60;;;9.90;99.90;;;;;;4997596;28;20206;-88
2021/11/03 10:35:59;;;;;;;2.07;1.07;;;9.90;99.90;;;;;;4997494;28;20199;-88
2021/11/03 10:38:45;;;;;;;0.87;0.83;;;9.90;99.90;;;;;;4997868;28;20245;-88
2021/11/03 10:41:23;;;;;;;3.47;1.37;;;9.90;99.90;;;;;;4997756;28;20210;-88
2021/11/03 10:44:22;;;;;;;1.67;1.20;;;10.00;99.90;;;;;;4983788;28;20206;-88
2021/11/03 10:46:55;;;;;;;1.27;0.90;;;10.10;99.90;;;;;;4973885;28;20569;-88
2021/11/03 10:49:37;;;;;;;1.63;1.13;;;10.10;99.90;;;;;;4978560;28;20254;-88
2021/11/03 10:52:23;;;;;;;1.73;1.00;;;10.10;99.90;;;;;;4961160;28;20226;-88
2021/11/03 10:54:58;;;;;;;1.07;0.97;;;10.10;99.90;;;;;;4977817;28;20234;-87
2021/11/03 10:57:38;;;;;;;0.90;0.80;;;10.10;99.90;;;;;;4978491;28;20210;-87
2021/11/03 11:00:22;;;;;;;0.90;0.90;;;10.10;99.90;;;;;;4978099;28;20210;-87
2021/11/03 11:02:59;;;;;;;1.03;0.83;;;10.10;99.90;;;;;;4978115;28;20660;-88
2021/11/03 11:05:35;;;;;;;0.87;0.73;;;10.00;99.90;;;;;;4961782;28;20204;-87
2021/11/03 11:08:13;;;;;;;1.00;0.53;;;10.10;99.90;;;;;;4958912;28;20214;-88
2021/11/03 11:10:52;;;;;;;2.30;0.70;;;10.10;99.90;;;;;;4958885;28;20238;-88
2021/11/03 11:13:28;;;;;;;1.17;0.70;;;10.10;99.90;;;;;;4958996;29;20212;-87
2021/11/03 11:16:05;;;;;;;1.37;0.60;;;10.10;99.90;;;;;;4958422;28;20211;-87
2021/11/03 11:18:52;;;;;;;1.53;0.60;;;10.10;99.90;;;;;;4959243;28;20219;-88
2021/11/03 11:21:29;;;;;;;1.53;0.70;;;10.10;99.90;;;;;;4970889;28;20215;-87
2021/11/03 11:24:02;;;;;;;1.30;0.80;;;10.00;99.90;;;;;;4976748;28;20212;-88
2021/11/03 11:26:44;;;;;;;1.77;0.90;;;10.10;99.90;;;;;;4971121;28;20211;-88
2021/11/03 11:29:22;;;;;;;1.43;1.00;;;10.10;99.90;;;;;;4959224;29;20233;-88
2021/11/03 11:32:00;;;;;;;2.53;1.10;;;10.00;99.90;;;;;;4958661;28;20278;-89
2021/11/03 11:34:55;;;;;;;1.17;1.07;;;10.00;99.90;;;;;;4941709;29;20219;-88
2021/11/03 11:37:34;;;;;;;1.20;0.90;;;10.00;99.90;;;;;;4958342;29;20219;-87
2021/11/03 11:40:22;;;;;;;1.43;1.10;;;9.90;99.90;;;;;;4972179;28;20211;-87
2021/11/03 11:43:01;;;;;;;1.73;1.00;;;9.80;99.90;;;;;;4958290;29;20673;-88
2021/11/03 11:45:34;;;;;;;1.37;1.20;;;9.80;99.90;;;;;;4972323;28;20245;-89
2021/11/03 11:48:12;;;;;;;1.17;0.97;;;9.70;99.90;;;;;;4976810;28;20250;-87
2021/11/03 11:50:48;;;;;;;1.73;1.10;;;9.70;99.90;;;;;;4976352;28;20227;-87
2021/11/03 11:53:26;;;;;;;1.43;1.00;;;9.70;99.90;;;;;;4977106;28;20234;-88
2021/11/03 11:56:27;;;;;;;0.90;0.80;;;9.70;99.90;;;;;;4666376;23;10002297;-89
2021/11/03 11:59:07;;;;;;;1.03;0.80;;;9.60;99.90;;;;;;4931227;29;20243;-88
2021/11/03 12:01:44;;;;;;;1.53;0.83;;;9.60;99.90;;;;;;4988719;28;20221;-87
2021/11/03 12:04:41;;;;;;;0.80;0.70;;;9.50;99.90;;;;;;4996610;28;20213;-88
2021/11/03 12:07:28;;;;;;;1.23;0.80;;;9.50;99.90;;;;;;4995423;28;20221;-87
2021/11/03 12:10:31;;;;;;;0.93;0.60;;;9.50;99.90;;;;;;4995970;28;20704;-87
2021/11/03 12:13:24;;;;;;;1.77;0.70;;;9.50;99.90;;;;;;4995965;28;20655;-87
2021/11/03 12:16:32;;;;;;;0.93;0.77;;;9.50;99.90;;;;;;4991747;28;20620;-87
2021/11/03 12:19:07;;;;;;;0.83;0.60;;;9.40;99.90;;;;;;4976789;28;20222;-88
2021/11/03 12:22:00;;;;;;;0.90;0.87;;;9.40;99.90;;;;;;4978811;28;20206;-87
2021/11/03 12:24:38;;;;;;;1.07;0.80;;;9.40;99.90;;;;;;4985900;28;20222;-89
2021/11/03 12:27:30;;;;;;;1.30;0.80;;;9.40;99.90;;;;;;4998946;28;20210;-87
2021/11/03 12:30:20;;;;;;;1.00;0.90;;;9.40;99.90;;;;;;5000051;28;20256;-87
2021/11/03 12:33:02;;;;;;;1.77;0.60;;;9.40;99.90;;;;;;4995741;28;20214;-87
2021/11/03 12:36:05;;;;;;;0.70;0.70;;;9.30;99.90;;;;;;4997802;28;20248;-87
2021/11/03 12:38:55;;;;;;;1.23;0.80;;;9.20;99.90;;;;;;4993905;28;20241;-87
2021/11/03 12:41:42;;;;;;;1.33;0.60;;;9.10;99.90;;;;;;4992038;28;20214;-88
2021/11/03 12:44:27;;;;;;;3.23;0.70;;;9.10;99.90;;;;;;4999629;28;20202;-88
2021/11/03 12:46:58;;;;;;;2.20;0.83;;;9.00;99.90;;;;;;4999067;28;20202;-87
2021/11/03 12:49:32;;;;;;;0.80;0.70;;;9.00;99.90;;;;;;5000878;28;20233;-86
2021/11/03 12:52:04;;;;;;;1.53;0.80;;;9.00;99.90;;;;;;5003308;28;20261;-86
2021/11/03 12:54:36;;;;;;;1.03;0.70;;;8.90;99.90;;;;;;5000575;28;20216;-86
2021/11/03 12:57:09;;;;;;;0.80;0.70;;;8.80;99.90;;;;;;4993557;28;20237;-86
2021/11/03 12:59:42;;;;;;;1.90;1.00;;;8.80;99.90;;;;;;5018423;28;20236;-87
2021/11/03 13:02:19;;;;;;;1.97;1.07;;;8.70;99.90;;;;;;5019019;28;20279;-87
2021/11/03 13:05:02;;;;;;;4.13;1.20;;;8.70;99.90;;;;;;5018432;28;20674;-88
2021/11/03 13:07:40;;;;;;;3.53;1.10;;;8.70;99.90;;;;;;5018181;28;20232;-88
2021/11/03 13:10:20;;;;;;;4.43;1.17;;;8.70;99.90;;;;;;5017382;28;20305;-86
2021/11/03 13:12:56;;;;;;;1.80;1.10;;;8.80;99.90;;;;;;5010299;28;20245;-86
2021/11/03 13:15:30;;;;;;;1.50;0.93;;;8.70;99.90;;;;;;4998335;28;20209;-87
2021/11/03 13:18:12;;;;;;;1.27;0.80;;;8.70;99.90;;;;;;4999348;28;20209;-87
2021/11/03 13:20:55;;;;;;;2.63;0.87;;;8.70;99.90;;;;;;4998205;28;20436;-88
2021/11/03 13:23:29;;;;;;;1.63;0.90;;;8.60;99.90;;;;;;4997721;28;20213;-87
2021/11/03 13:26:03;;;;;;;0.63;0.60;;;8.60;99.90;;;;;;4998519;28;20237;-88
2021/11/03 13:28:37;;;;;;;0.73;0.60;;;8.60;99.90;;;;;;5001981;28;20300;-88
2021/11/03 13:31:22;;;;;;;1.40;0.60;;;8.50;99.90;;;;;;4999233;28;20292;-87
2021/11/03 13:34:15;;;;;;;1.03;0.60;;;8.50;99.90;;;;;;5010076;28;20214;-88
2021/11/03 13:37:01;;;;;;;1.10;0.40;;;8.50;99.90;;;;;;5016884;28;20272;-88
2021/11/03 13:39:34;;;;;;;0.67;0.67;;;8.40;99.90;;;;;;5016147;28;20217;-88
2021/11/03 13:42:28;;;;;;;1.10;0.70;;;8.40;99.90;;;;;;5027081;28;20259;-86
2021/11/03 13:45:02;;;;;;;1.33;0.60;;;8.50;99.90;;;;;;5005277;28;20214;-87